Time;durP1;ratioP1;P1;durP2;ratioP2;P2;SDS_P1;SDS_P2;PMS_P1;PMS_P2;Temp;Humidity;BMP_temperature;BMP_pressure;BME280_temperature;BME280_humidity;BME280_pressure;Samples;Min_cycle;Max_cycle;Signal;HPM_P1;HPM_P2
2021/11/20 00:17:45;;;;;;;0.20;0.20;;;;;;;9.93;67.08;99009.55;103819;1349;137523;-83
2021/11/20 00:51:55;;;;;;;0.10;0.10;;;;;;;9.63;67.10;98995.58;103960;1353;137559;-83
2021/11/20 01:04:18;;;;;;;0.10;0.10;;;;;;;9.65;67.01;98988.33;103936;1354;137233;-83
2021/11/20 01:17:00;;;;;;;0.00;0.00;;;;;;;9.57;66.63;98969.39;103950;1346;137907;-82
2021/11/20 01:23:19;;;;;;;0.10;0.10;;;;;;;9.48;66.72;98985.95;103975;1354;137747;-83
2021/11/20 01:26:45;;;;;;;0.10;0.10;;;;;;;9.41;66.70;98991.73;103937;1357;137557;-83
2021/11/20 01:46:17;;;;;;;0.10;0.10;;;;;;;9.46;67.01;98957.22;103981;1346;137319;-83
2021/11/20 02:04:15;;;;;;;0.10;0.10;;;;;;;9.24;67.95;98940.59;103878;1355;136726;-83
2021/11/20 02:06:54;;;;;;;0.10;0.10;;;;;;;9.26;67.74;98939.38;103704;1356;137585;-85
2021/11/20 02:09:27;;;;;;;0.10;0.10;;;;;;;9.25;67.92;98939.99;103890;1355;23196;-85
2021/11/20 02:12:00;;;;;;;0.10;0.10;;;;;;;9.24;67.75;98944.74;103907;1355;137589;-84
2021/11/20 02:14:28;;;;;;;0.10;0.10;;;;;;;9.22;67.84;98943.04;103813;1353;138573;-84
2021/11/20 02:17:06;;;;;;;0.10;0.10;;;;;;;9.21;67.87;98941.82;103702;1355;138547;-84
2021/11/20 02:19:42;;;;;;;0.00;0.00;;;;;;;9.18;68.12;98935.27;103701;1355;138028;-84
2021/11/20 02:22:39;;;;;;;0.10;0.10;;;;;;;9.18;68.06;98937.80;103730;1355;138944;-83
2021/11/20 02:25:04;;;;;;;0.10;0.10;;;;;;;9.17;68.08;98940.73;103810;1355;138014;-83
2021/11/20 02:27:40;;;;;;;0.10;0.10;;;;;;;9.18;68.49;98944.38;104022;1355;22433;-83
2021/11/20 02:30:27;;;;;;;0.10;0.10;;;;;;;9.20;68.91;98942.69;103810;1355;138607;-83
2021/11/20 02:33:03;;;;;;;0.10;0.10;;;;;;;9.21;68.84;98941.77;103552;1355;138213;-83
2021/11/20 02:35:44;;;;;;;0.10;0.10;;;;;;;9.22;68.43;98949.48;103900;1355;137970;-83
2021/11/20 02:38:12;;;;;;;;;;;;;;;9.22;68.71;98947.55;103667;1355;138110;-84
2021/11/20 02:40:39;;;;;;;0.00;0.00;;;;;;;9.19;68.73;98948.76;103786;1356;124483;-84
2021/11/20 02:43:05;;;;;;;0.10;0.10;;;;;;;9.18;68.39;98945.16;103702;1355;138402;-83
2021/11/20 02:45:35;;;;;;;0.10;0.10;;;;;;;9.18;68.43;98938.18;103903;1356;22450;-83
2021/11/20 02:48:01;;;;;;;0.10;0.10;;;;;;;9.17;68.52;98936.43;103868;1355;137483;-83
2021/11/20 02:50:50;;;;;;;0.10;0.10;;;;;;;9.19;68.47;98932.21;103683;1355;138544;-83
2021/11/20 02:53:21;;;;;;;0.10;0.10;;;;;;;9.24;68.74;98926.73;103387;1355;139132;-83
2021/11/20 02:55:50;;;;;;;0.20;0.20;;;;;;;9.27;68.61;98922.99;103676;1355;137623;-83
2021/11/20 02:58:20;;;;;;;0.10;0.10;;;;;;;9.29;68.50;98922.41;103767;1355;137879;-84
2021/11/20 03:00:50;;;;;;;0.10;0.10;;;;;;;9.31;68.25;98925.09;103546;1357;138631;-83
2021/11/20 03:03:15;;;;;;;0.00;0.00;;;;;;;9.30;67.98;98919.35;103527;1354;22435;-83
2021/11/20 03:05:41;;;;;;;0.10;0.10;;;;;;;9.30;68.05;98926.75;103944;1354;137339;-83
2021/11/20 03:08:07;;;;;;;0.10;0.10;;;;;;;9.32;68.17;98920.78;103667;1354;137730;-82
2021/11/20 03:10:32;;;;;;;0.10;0.10;;;;;;;9.33;67.93;98928.93;103747;1354;137791;-84
2021/11/20 03:12:58;;;;;;;0.10;0.10;;;;;;;9.32;68.07;98921.36;103766;1353;137764;-84
2021/11/20 03:15:23;;;;;;;0.10;0.10;;;;;;;9.31;67.84;98922.13;103899;1354;22502;-84
2021/11/20 03:17:49;;;;;;;0.00;0.00;;;;;;;9.30;68.14;98924.98;103875;1354;137507;-84
2021/11/20 03:20:18;;;;;;;0.10;0.10;;;;;;;9.29;68.18;98922.75;103772;1354;138258;-84
2021/11/20 03:22:52;;;;;;;0.10;0.10;;;;;;;9.29;68.34;98917.59;103879;1354;138284;-84
2021/11/20 03:25:18;;;;;;;0.10;0.10;;;;;;;9.33;68.65;98923.40;103773;1354;137847;-84
2021/11/20 03:27:44;;;;;;;0.10;0.10;;;;;;;9.37;68.54;98924.23;103967;1354;22348;-84
2021/11/20 03:30:11;;;;;;;0.10;0.10;;;;;;;9.39;68.09;98924.73;103683;1354;137539;-83
2021/11/20 03:32:37;;;;;;;0.10;0.10;;;;;;;9.38;68.14;98925.45;103767;1354;137895;-84
2021/11/20 03:35:04;;;;;;;0.10;0.10;;;;;;;9.34;68.15;98925.38;103937;1354;137551;-84
2021/11/20 03:37:30;;;;;;;0.10;0.10;;;;;;;9.32;68.18;98930.51;103759;1354;137955;-84
2021/11/20 03:39:56;;;;;;;0.10;0.10;;;;;;;9.30;68.00;98936.38;103893;1354;137652;-84
2021/11/20 03:42:22;;;;;;;0.20;0.20;;;;;;;9.30;67.98;98938.80;103811;1354;137742;-83
2021/11/20 03:44:48;;;;;;;0.10;0.10;;;;;;;9.29;67.92;98937.52;103879;1354;137856;-82
2021/11/20 03:47:13;;;;;;;0.10;0.10;;;;;;;9.28;67.87;98938.23;103883;1354;138068;-82
2021/11/20 03:49:39;;;;;;;0.10;0.10;;;;;;;9.30;67.63;98935.48;103791;1354;139094;-82
2021/11/20 03:52:05;;;;;;;0.10;0.10;;;;;;;9.32;68.39;98935.50;103780;1354;138670;-83
2021/11/20 03:54:31;;;;;;;0.10;0.10;;;;;;;9.36;67.79;98931.11;103794;1354;139011;-84
2021/11/20 03:56:56;;;;;;;0.10;0.10;;;;;;;9.40;68.28;98926.22;103938;1354;138171;-84
2021/11/20 03:59:22;;;;;;;0.10;0.10;;;;;;;9.43;67.85;98926.46;103965;1354;136775;-84
2021/11/20 04:01:49;;;;;;;0.10;0.10;;;;;;;9.43;67.57;98920.92;103764;1354;137777;-84
2021/11/20 04:04:15;;;;;;;0.10;0.10;;;;;;;9.43;67.42;98919.04;103779;1354;138042;-85
2021/11/20 04:06:40;;;;;;;0.10;0.10;;;;;;;9.41;67.05;98920.18;103951;1354;138236;-85
2021/11/20 04:09:12;;;;;;;0.10;0.10;;;;;;;9.38;66.84;98920.38;103871;1354;137489;-85
2021/11/20 04:11:38;;;;;;;0.10;0.10;;;;;;;9.35;66.96;98915.37;103876;1354;137563;-85
2021/11/20 04:14:05;;;;;;;0.10;0.10;;;;;;;9.32;67.08;98909.12;103773;1354;138204;-85
2021/11/20 04:16:33;;;;;;;0.10;0.10;;;;;;;9.30;67.10;98909.89;103830;1354;137964;-85
2021/11/20 04:18:58;;;;;;;0.10;0.10;;;;;;;9.29;67.06;98905.66;103817;1354;138318;-84
2021/11/20 04:21:25;;;;;;;0.10;0.10;;;;;;;9.31;67.04;98908.48;104016;1354;22306;-84
2021/11/20 04:23:51;;;;;;;0.10;0.10;;;;;;;9.34;67.47;98900.48;103947;1354;138336;-84
2021/11/20 04:26:20;;;;;;;0.10;0.10;;;;;;;9.37;67.21;98899.06;103816;1354;138265;-84
2021/11/20 04:28:46;;;;;;;0.20;0.20;;;;;;;9.38;66.97;98894.68;103916;1354;137715;-85
2021/11/20 04:31:12;;;;;;;0.10;0.10;;;;;;;9.37;66.82;98892.14;103812;1354;137720;-84
2021/11/20 04:33:39;;;;;;;0.00;0.00;;;;;;;9.34;66.34;98884.15;103935;1354;22600;-85
2021/11/20 04:36:05;;;;;;;0.10;0.10;;;;;;;9.29;66.41;98886.09;103830;1354;138149;-84
2021/11/20 04:38:31;;;;;;;0.10;0.10;;;;;;;9.26;66.55;98882.52;103775;1354;137855;-85
2021/11/20 04:40:57;;;;;;;0.10;0.10;;;;;;;9.23;66.59;98882.20;103875;1354;137810;-85
2021/11/20 04:43:22;;;;;;;0.10;0.10;;;;;;;9.16;66.65;98881.15;103786;1354;137785;-85
2021/11/20 04:45:49;;;;;;;0.10;0.10;;;;;;;9.07;66.86;98872.17;103964;1354;22475;-84
2021/11/20 04:48:15;;;;;;;0.10;0.10;;;;;;;9.04;67.00;98881.35;103945;1354;138436;-84
2021/11/20 04:50:40;;;;;;;0.10;0.10;;;;;;;9.04;67.24;98882.31;103770;1355;138798;-84
2021/11/20 04:53:06;;;;;;;0.10;0.10;;;;;;;9.04;67.28;98880.98;103852;1354;137937;-84
2021/11/20 04:55:32;;;;;;;0.10;0.10;;;;;;;9.01;67.34;98885.08;103774;1354;137850;-84
2021/11/20 04:57:57;;;;;;;0.20;0.20;;;;;;;9.00;67.27;98886.44;103873;1354;137780;-85
2021/11/20 05:00:27;;;;;;;0.10;0.10;;;;;;;8.99;67.12;98893.20;103812;1354;138170;-85
2021/11/20 05:02:54;;;;;;;0.10;0.10;;;;;;;8.99;67.02;98889.08;103732;1355;137704;-85
2021/11/20 05:05:21;;;;;;;0.10;0.10;;;;;;;8.98;67.23;98876.48;103922;1355;137641;-84
2021/11/20 05:07:46;;;;;;;0.10;0.10;;;;;;;8.94;66.80;98869.64;103586;1355;137761;-85
2021/11/20 05:10:13;;;;;;;0.20;0.20;;;;;;;8.87;67.00;98868.64;103784;1355;137658;-85
2021/11/20 05:12:40;;;;;;;0.10;0.10;;;;;;;8.80;67.11;98871.35;103827;1354;137908;-85
2021/11/20 05:15:07;;;;;;;0.10;0.10;;;;;;;8.75;67.49;98882.04;103840;1356;137460;-83
2021/11/20 05:17:33;;;;;;;0.10;0.10;;;;;;;8.72;67.21;98885.34;103909;1355;138156;-83
2021/11/20 05:19:58;;;;;;;0.10;0.10;;;;;;;8.72;67.25;98883.14;103813;1355;138259;-83
2021/11/20 05:22:24;;;;;;;0.10;0.10;;;;;;;8.72;67.56;98875.83;103852;1355;138557;-84
2021/11/20 05:24:49;;;;;;;0.10;0.10;;;;;;;8.74;67.74;98886.98;103752;1355;138112;-84
2021/11/20 05:27:15;;;;;;;0.10;0.10;;;;;;;8.76;67.51;98882.25;104027;1355;23111;-83
2021/11/20 05:32:18;;;;;;;0.20;0.20;;;;;;;8.76;67.36;98877.73;103678;1357;138293;-84
2021/11/20 05:34:44;;;;;;;0.10;0.10;;;;;;;8.74;67.30;98875.06;103922;1355;137461;-86
2021/11/20 05:37:09;;;;;;;0.10;0.10;;;;;;;8.71;67.29;98868.77;103759;1357;137630;-86
2021/11/20 05:39:35;;;;;;;0.10;0.10;;;;;;;8.67;67.03;98868.48;103953;1356;22260;-85
2021/11/20 05:42:01;;;;;;;0.10;0.10;;;;;;;8.64;66.97;98872.27;103758;1357;137675;-85
2021/11/20 05:44:28;;;;;;;0.10;0.10;;;;;;;8.61;67.03;98880.67;103741;1356;138146;-84
2021/11/20 05:46:58;;;;;;;0.00;0.00;;;;;;;8.57;67.07;98879.21;103820;1355;137649;-84
2021/11/20 05:49:26;;;;;;;0.10;0.10;;;;;;;8.52;66.84;98881.40;103765;1355;138056;-84
2021/11/20 05:51:52;;;;;;;0.10;0.10;;;;;;;8.51;66.93;98884.36;103908;1355;138169;-84
2021/11/20 05:54:17;;;;;;;0.10;0.10;;;;;;;8.55;67.43;98887.66;103858;1355;138431;-86
2021/11/20 05:56:43;;;;;;;0.10;0.10;;;;;;;8.58;67.29;98890.10;103858;1357;138221;-84
2021/11/20 05:59:08;;;;;;;0.10;0.10;;;;;;;8.62;67.25;98887.75;103550;1356;137696;-83
2021/11/20 06:01:34;;;;;;;0.10;0.10;;;;;;;8.65;67.10;98888.48;103670;1355;138298;-83
2021/11/20 06:04:00;;;;;;;0.10;0.10;;;;;;;8.63;67.29;98889.24;103867;1356;138002;-83
2021/11/20 06:06:25;;;;;;;0.10;0.10;;;;;;;8.62;66.96;98886.95;103914;1355;138638;-83
2021/11/20 06:08:51;;;;;;;0.10;0.10;;;;;;;8.62;66.77;98884.42;103914;1356;137893;-84
2021/11/20 06:11:18;;;;;;;0.10;0.10;;;;;;;8.61;66.60;98880.41;103210;1357;138886;-83
2021/11/20 06:13:44;;;;;;;0.10;0.10;;;;;;;8.58;66.94;98878.88;103826;1355;137589;-83
2021/11/20 06:16:09;;;;;;;0.00;0.00;;;;;;;8.52;67.24;98879.14;103867;1355;137923;-84
2021/11/20 06:18:35;;;;;;;0.10;0.10;;;;;;;8.48;66.64;98873.87;103852;1357;136588;-82
2021/11/20 06:21:04;;;;;;;0.10;0.10;;;;;;;8.46;66.83;98869.60;103887;1355;137424;-82
2021/11/20 06:23:30;;;;;;;0.10;0.10;;;;;;;8.46;67.07;98861.02;103771;1356;136825;-84
2021/11/20 06:25:57;;;;;;;0.10;0.10;;;;;;;8.50;67.07;98865.90;103736;1355;138437;-84
2021/11/20 06:28:23;;;;;;;0.10;0.10;;;;;;;8.55;67.52;98866.50;103845;1356;138050;-84
2021/11/20 06:30:49;;;;;;;0.00;0.00;;;;;;;8.60;67.13;98856.46;103735;1357;137750;-83
2021/11/20 06:33:15;;;;;;;0.00;0.00;;;;;;;8.65;66.95;98856.73;103807;1355;137344;-83
2021/11/20 06:35:41;;;;;;;0.00;0.00;;;;;;;8.69;66.91;98857.46;103875;1355;138083;-84
2021/11/20 06:38:07;;;;;;;0.10;0.10;;;;;;;8.71;66.59;98861.19;103707;1355;137796;-83
2021/11/20 06:40:39;;;;;;;0.10;0.10;;;;;;;8.73;66.72;98868.58;103836;1357;138437;-84
2021/11/20 06:43:07;;;;;;;0.10;0.10;;;;;;;8.76;66.69;98879.98;103675;1355;137548;-83
2021/11/20 06:45:37;;;;;;;0.10;0.10;;;;;;;8.79;66.13;98880.21;103927;1355;22533;-84
2021/11/20 06:48:05;;;;;;;0.10;0.10;;;;;;;8.82;66.34;98885.67;103728;1355;137712;-83
2021/11/20 06:50:32;;;;;;;0.10;0.10;;;;;;;8.84;66.27;98894.67;103692;1355;137715;-83
2021/11/20 06:52:58;;;;;;;0.10;0.10;;;;;;;8.87;66.20;98904.56;103822;1355;138031;-84
2021/11/20 06:55:26;;;;;;;0.00;0.00;;;;;;;8.90;66.11;98906.64;103722;1357;137929;-83
2021/11/20 06:57:56;;;;;;;0.00;0.00;;;;;;;8.92;66.13;98918.75;103791;1353;139057;-84
2021/11/20 07:00:27;;;;;;;0.10;0.10;;;;;;;8.98;66.24;98923.80;103789;1355;138353;-84
2021/11/20 07:02:59;;;;;;;0.10;0.10;;;;;;;9.08;66.27;98923.85;103573;1355;138582;-84
2021/11/20 07:05:27;;;;;;;0.10;0.10;;;;;;;9.19;65.97;98931.19;103710;1357;137991;-84
2021/11/20 07:07:54;;;;;;;0.10;0.10;;;;;;;9.27;65.94;98931.52;103642;1356;138308;-84
2021/11/20 07:10:22;;;;;;;0.10;0.10;;;;;;;9.31;65.68;98934.77;103744;1357;138514;-84
2021/11/20 07:12:49;;;;;;;0.00;0.00;;;;;;;9.36;65.23;98936.20;103750;1357;138020;-83
2021/11/20 07:15:17;;;;;;;0.10;0.10;;;;;;;9.43;65.34;98947.42;104004;1355;22439;-84
2021/11/20 07:17:42;;;;;;;0.10;0.10;;;;;;;9.50;64.88;98951.10;103792;1355;137608;-84
2021/11/20 07:20:09;;;;;;;0.10;0.10;;;;;;;9.56;64.95;98945.05;103811;1355;137883;-84
2021/11/20 07:22:34;;;;;;;0.20;0.20;;;;;;;9.61;64.41;98951.66;103922;1355;138034;-84
2021/11/20 07:25:01;;;;;;;0.10;0.10;;;;;;;9.67;64.45;98948.46;103090;1356;137708;-83
2021/11/20 07:27:27;;;;;;;0.10;0.10;;;;;;;9.73;64.34;98957.78;103868;1355;22491;-84
2021/11/20 07:29:55;;;;;;;0.10;0.10;;;;;;;9.79;64.05;98953.77;103778;1355;137790;-84
2021/11/20 07:32:21;;;;;;;0.20;0.20;;;;;;;9.86;64.15;98949.13;103735;1356;137631;-84
2021/11/20 07:34:46;;;;;;;0.20;0.20;;;;;;;9.92;63.93;98946.73;103773;1357;137784;-84
2021/11/20 07:37:12;;;;;;;0.20;0.20;;;;;;;9.98;63.81;98951.80;103713;1357;138336;-85
2021/11/20 07:39:38;;;;;;;0.10;0.10;;;;;;;10.06;63.53;98945.30;103932;1355;22575;-84
2021/11/20 07:42:05;;;;;;;0.20;0.20;;;;;;;10.12;63.61;98944.56;103852;1357;137652;-86
2021/11/20 07:44:31;;;;;;;0.10;0.10;;;;;;;10.20;63.55;98937.60;103653;1357;137652;-86
2021/11/20 07:46:56;;;;;;;0.10;0.10;;;;;;;10.29;63.09;98940.98;103804;1355;138137;-84
2021/11/20 07:49:22;;;;;;;0.10;0.10;;;;;;;10.38;62.92;98947.91;103178;1355;139092;-84
2021/11/20 07:51:47;;;;;;;0.20;0.20;;;;;;;10.48;62.75;98944.24;103998;1355;22448;-84
2021/11/20 07:54:13;;;;;;;0.20;0.20;;;;;;;10.56;62.32;98948.68;103806;1355;137732;-84
2021/11/20 07:56:42;;;;;;;0.20;0.20;;;;;;;10.61;62.16;98957.88;103853;1357;137776;-84
2021/11/20 07:59:15;;;;;;;0.20;0.20;;;;;;;10.67;61.94;98952.64;103686;1357;137872;-84
2021/11/20 08:01:41;;;;;;;0.20;0.20;;;;;;;10.76;61.79;98963.80;103486;1357;137707;-84
2021/11/20 08:04:07;;;;;;;0.20;0.20;;;;;;;10.91;62.04;98970.35;103686;1357;138552;-84
2021/11/20 08:06:33;;;;;;;0.10;0.10;;;;;;;11.09;62.05;98964.03;103768;1355;138634;-84
2021/11/20 08:09:03;;;;;;;0.20;0.20;;;;;;;11.32;62.10;98969.00;103848;1355;137945;-84
2021/11/20 08:11:31;;;;;;;0.20;0.20;;;;;;;11.56;61.21;98974.83;103784;1355;138538;-84
2021/11/20 08:13:57;;;;;;;0.20;0.20;;;;;;;11.78;60.63;98964.98;103674;1355;138037;-84
2021/11/20 08:16:22;;;;;;;0.10;0.10;;;;;;;11.98;60.18;98964.48;103750;1355;138509;-84
2021/11/20 08:18:48;;;;;;;0.20;0.20;;;;;;;12.18;59.11;98963.48;103765;1358;138068;-84
2021/11/20 08:21:13;;;;;;;0.20;0.20;;;;;;;12.36;58.96;98963.70;103816;1357;137510;-83
2021/11/20 08:23:40;;;;;;;0.20;0.20;;;;;;;12.53;58.32;98962.67;103785;1355;137864;-84
2021/11/20 08:26:06;;;;;;;0.20;0.20;;;;;;;12.65;57.78;98956.70;103325;1357;138457;-84
2021/11/20 08:28:31;;;;;;;0.20;0.20;;;;;;;12.78;57.43;98948.55;103783;1356;138076;-84
2021/11/20 08:30:58;;;;;;;0.20;0.20;;;;;;;12.89;56.50;98942.70;103771;1356;138294;-84
2021/11/20 08:33:25;;;;;;;0.30;0.30;;;;;;;13.01;56.59;98945.02;104049;1355;22533;-84
2021/11/20 08:35:50;;;;;;;0.20;0.20;;;;;;;13.13;56.21;98946.53;103929;1355;137508;-84
2021/11/20 08:38:16;;;;;;;0.20;0.20;;;;;;;13.21;55.98;98945.08;103589;1357;137728;-84
2021/11/20 08:40:45;;;;;;;0.10;0.10;;;;;;;13.23;55.15;98946.08;103803;1357;138759;-84
2021/11/20 08:43:11;;;;;;;0.30;0.30;;;;;;;13.28;55.66;98951.15;103566;1357;138242;-84
2021/11/20 08:45:43;;;;;;;0.10;0.10;;;;;;;13.37;55.29;98953.98;103943;1354;22565;-84
2021/11/20 08:48:11;;;;;;;0.30;0.30;;;;;;;13.42;54.79;98956.92;103755;1357;138307;-83
2021/11/20 08:50:43;;;;;;;0.20;0.20;;;;;;;13.49;54.84;98961.14;103493;1357;139002;-84
2021/11/20 08:53:09;;;;;;;0.10;0.10;;;;;;;13.58;54.48;98961.23;103884;1357;138650;-84
2021/11/20 08:55:35;;;;;;;0.20;0.20;;;;;;;13.61;52.90;98963.48;103683;1355;138040;-85
2021/11/20 08:58:01;;;;;;;0.20;0.20;;;;;;;13.64;53.36;98963.29;103901;1355;138083;-84
2021/11/20 09:00:34;;;;;;;0.20;0.20;;;;;;;13.70;53.35;98968.92;103871;1354;139356;-85
2021/11/20 09:03:07;;;;;;;0.30;0.30;;;;;;;13.77;53.26;98970.32;103790;1356;138267;-84
2021/11/20 09:06:04;;;;;;;0.20;0.20;;;;;;;13.88;53.38;98974.87;103750;1355;138562;-84
2021/11/20 09:08:46;;;;;;;0.20;0.20;;;;;;;13.99;52.99;98972.48;103647;1357;138649;-85
2021/11/20 09:11:21;;;;;;;0.20;0.20;;;;;;;14.14;53.40;98980.44;103778;1348;138491;-84
2021/11/20 09:14:09;;;;;;;0.30;0.30;;;;;;;14.28;53.03;98971.46;103744;1355;137817;-85
2021/11/20 09:16:38;;;;;;;0.40;0.40;;;;;;;14.41;52.29;98967.02;103765;1354;138444;-84
2021/11/20 09:19:05;;;;;;;0.20;0.20;;;;;;;14.51;52.07;98970.89;103040;1355;138467;-83
2021/11/20 09:21:31;;;;;;;0.20;0.20;;;;;;;14.62;51.21;98966.17;103967;1355;22420;-83
2021/11/20 09:23:59;;;;;;;0.20;0.20;;;;;;;14.68;51.42;98959.94;103678;1356;137324;-84
2021/11/20 09:26:25;;;;;;;0.20;0.20;;;;;;;14.72;50.88;98949.38;103392;1356;138245;-84
2021/11/20 09:28:51;;;;;;;0.20;0.20;;;;;;;14.76;51.04;98947.14;103738;1356;137230;-81
2021/11/20 09:31:17;;;;;;;0.10;0.10;;;;;;;14.83;50.84;98951.81;103660;1355;137934;-81
2021/11/20 09:33:44;;;;;;;0.20;0.20;;;;;;;14.93;50.66;98948.63;103831;1357;22437;-83
2021/11/20 09:36:09;;;;;;;0.30;0.30;;;;;;;14.99;50.18;98948.80;103739;1357;137607;-82
2021/11/20 09:38:36;;;;;;;0.20;0.20;;;;;;;15.00;49.93;98960.53;103657;1355;137974;-80
2021/11/20 09:41:12;;;;;;;0.40;0.40;;;;;;;15.02;49.61;98957.50;103239;1357;137899;-80
2021/11/20 09:43:41;;;;;;;0.20;0.20;;;;;;;15.08;49.92;98949.48;103610;1351;137816;-81
2021/11/20 09:46:15;;;;;;;0.30;0.30;;;;;;;15.22;49.73;98948.34;103633;1356;137511;-81
2021/11/20 09:48:45;;;;;;;0.30;0.30;;;;;;;15.33;49.43;98937.30;103861;1355;138001;-81
2021/11/20 09:51:24;;;;;;;0.20;0.20;;;;;;;15.36;48.54;98937.67;103761;1355;137786;-81
2021/11/20 09:53:51;;;;;;;0.30;0.30;;;;;;;15.33;48.92;98938.16;103721;1354;137867;-82
2021/11/20 09:56:36;;;;;;;0.20;0.20;;;;;;;15.36;48.55;98939.90;103692;1348;138106;-80
2021/11/20 09:59:29;;;;;;;0.30;0.30;;;;;;;15.38;48.34;98939.45;103687;1355;137807;-80
2021/11/20 10:02:07;;;;;;;0.20;0.20;;;;;;;15.40;48.35;98935.41;103304;1357;138593;-84
2021/11/20 10:04:48;;;;;;;0.20;0.20;;;;;;;15.51;48.36;98939.42;103786;1355;138278;-85
2021/11/20 10:07:23;;;;;;;0.20;0.20;;;;;;;15.55;48.23;98935.09;103692;1354;138417;-85
2021/11/20 10:10:01;;;;;;;0.30;0.30;;;;;;;15.64;47.87;98938.88;103855;1355;22500;-84
2021/11/20 10:12:41;;;;;;;0.40;0.40;;;;;;;15.83;48.18;98941.23;103768;1354;138409;-82
2021/11/20 10:15:24;;;;;;;0.30;0.30;;;;;;;16.05;47.95;98943.44;103751;1355;137666;-83
2021/11/20 10:18:13;;;;;;;0.20;0.20;;;;;;;16.21;47.24;98937.21;103732;1354;137793;-82
2021/11/20 10:20:46;;;;;;;0.30;0.30;;;;;;;16.37;46.44;98936.55;103746;1355;138677;-83
2021/11/20 10:23:38;;;;;;;0.30;0.30;;;;;;;16.50;46.55;98931.55;103836;1353;138078;-83
2021/11/20 10:26:41;;;;;;;0.30;0.30;;;;;;;16.59;46.35;98931.90;103717;1354;138781;-83
2021/11/20 10:29:45;;;;;;;0.30;0.30;;;;;;;16.74;46.27;98928.98;103729;1354;138076;-83
2021/11/20 10:32:21;;;;;;;0.20;0.20;;;;;;;16.93;46.00;98924.45;102723;1355;536694;-83
2021/11/20 10:34:54;;;;;;;0.30;0.30;;;;;;;17.06;45.01;98918.53;103746;1354;137801;-82
2021/11/20 10:37:27;;;;;;;0.40;0.40;;;;;;;17.09;44.74;98921.48;103700;1354;138230;-82
2021/11/20 10:40:00;;;;;;;0.30;0.30;;;;;;;17.11;45.01;98921.15;103696;1355;137913;-83
2021/11/20 10:42:40;;;;;;;0.30;0.30;;;;;;;17.12;44.38;98924.46;103720;1354;138364;-82
2021/11/20 10:45:09;;;;;;;0.30;0.30;;;;;;;17.13;44.24;98920.14;103785;1354;137793;-83
2021/11/20 10:47:55;;;;;;;0.30;0.30;;;;;;;17.27;44.85;98921.05;103757;1355;138216;-83
2021/11/20 10:50:36;;;;;;;0.20;0.20;;;;;;;17.49;44.12;98920.09;103652;1354;139962;-83
2021/11/20 10:53:19;;;;;;;0.40;0.40;;;;;;;17.56;43.91;98918.63;103817;1352;138479;-82
2021/11/20 10:56:06;;;;;;;0.30;0.30;;;;;;;17.62;43.65;98916.56;103708;1355;139512;-83
2021/11/20 10:58:53;;;;;;;0.40;0.40;;;;;;;17.69;43.11;98910.91;103872;1354;137863;-83
2021/11/20 11:02:03;;;;;;;0.30;0.30;;;;;;;17.63;43.10;98910.89;103739;1354;138217;-83
2021/11/20 11:04:37;;;;;;;0.40;0.40;;;;;;;17.61;43.17;98911.20;103780;1354;138099;-83
2021/11/20 11:07:18;;;;;;;0.40;0.40;;;;;;;17.76;43.69;98912.71;103803;1354;138723;-82
2021/11/20 11:09:57;;;;;;;0.40;0.40;;;;;;;17.95;43.25;98907.91;103949;1354;22446;-82
2021/11/20 11:12:35;;;;;;;0.40;0.40;;;;;;;18.12;42.72;98907.77;103900;1354;138146;-83
2021/11/20 11:15:06;;;;;;;0.30;0.30;;;;;;;18.24;42.24;98910.58;103827;1355;138428;-85
2021/11/20 11:17:58;;;;;;;0.30;0.30;;;;;;;18.29;42.46;98909.82;103914;1354;137839;-84
2021/11/20 11:20:45;;;;;;;0.40;0.40;;;;;;;18.45;42.06;98905.98;103811;1354;137833;-84
2021/11/20 11:23:16;;;;;;;0.20;0.20;;;;;;;18.65;41.48;98905.64;103886;1355;138120;-84
2021/11/20 11:25:47;;;;;;;;;;;;;;;18.80;40.83;98899.44;103817;1348;137673;-82
2021/11/20 11:28:30;;;;;;;;;;;;;;;18.81;41.14;98903.05;103841;1354;124517;-83
2021/11/20 11:31:09;;;;;;;0.20;0.20;;;;;;;18.92;41.02;98902.37;103755;1354;124666;-83
2021/11/20 11:33:40;;;;;;;0.30;0.30;;;;;;;19.11;40.91;98899.81;103931;1354;23108;-83
2021/11/20 11:36:33;;;;;;;0.40;0.40;;;;;;;19.22;40.78;98902.80;103914;1354;137685;-83
2021/11/20 11:39:20;;;;;;;0.30;0.30;;;;;;;19.24;39.92;98907.00;103720;1355;138587;-83
2021/11/20 11:42:11;;;;;;;0.30;0.30;;;;;;;19.10;39.87;98899.39;103869;1354;138436;-83
2021/11/20 11:44:52;;;;;;;0.30;0.30;;;;;;;18.94;39.74;98907.48;103784;1354;138263;-84
2021/11/20 11:47:22;;;;;;;0.30;0.30;;;;;;;18.97;40.40;98906.15;103856;1354;138856;-81
2021/11/20 11:50:38;;;;;;;0.30;0.30;;;;;;;19.18;40.56;98902.92;103786;1354;138313;-83
2021/11/20 11:53:42;;;;;;;0.30;0.30;;;;;;;19.40;40.00;98895.73;103753;1354;137990;-83
2021/11/20 11:56:23;;;;;;;0.40;0.40;;;;;;;19.55;39.36;98889.13;103820;1354;138688;-83
2021/11/20 11:58:57;;;;;;;0.40;0.40;;;;;;;19.55;39.35;98889.38;103904;1354;138608;-83
2021/11/20 12:01:39;;;;;;;0.30;0.30;;;;;;;19.66;39.26;98890.27;103759;1354;138431;-83
2021/11/20 12:04:07;;;;;;;;;;;;;;;19.76;39.03;98884.55;103700;1354;138170;-83
2021/11/20 12:06:40;;;;;;;0.40;0.40;;;;;;;19.86;38.69;98887.35;103948;1354;22532;-84
2021/11/20 12:09:21;;;;;;;0.50;0.50;;;;;;;20.07;38.60;98880.66;103784;1354;138366;-83
2021/11/20 12:11:48;;;;;;;0.30;0.30;;;;;;;20.34;38.30;98879.15;103854;1354;137685;-83
2021/11/20 12:14:33;;;;;;;0.40;0.40;;;;;;;20.45;38.24;98875.45;103666;1356;137916;-83
2021/11/20 12:17:04;;;;;;;0.40;0.40;;;;;;;20.58;37.94;98874.23;103867;1355;138323;-84
2021/11/20 12:19:45;;;;;;;0.40;0.40;;;;;;;20.67;37.40;98869.79;103480;1357;138415;-84
2021/11/20 12:22:22;;;;;;;0.50;0.50;;;;;;;20.74;37.13;98864.75;103782;1356;138792;-82
2021/11/20 12:24:54;;;;;;;0.40;0.40;;;;;;;20.86;36.94;98869.34;103886;1355;138110;-82
2021/11/20 12:27:38;;;;;;;0.40;0.40;;;;;;;20.99;36.57;98862.59;104025;1354;22481;-83
2021/11/20 12:30:38;;;;;;;0.50;0.50;;;;;;;21.05;36.72;98864.63;103936;1354;137933;-83
2021/11/20 12:33:22;;;;;;;0.30;0.30;;;;;;;21.18;35.80;98861.95;103190;1361;138240;-84
2021/11/20 12:35:57;;;;;;;0.40;0.40;;;;;;;21.31;36.09;98861.45;103802;1354;136820;-83
2021/11/20 12:38:36;;;;;;;0.40;0.40;;;;;;;21.40;35.50;98863.71;103831;1354;138003;-85
2021/11/20 12:41:17;;;;;;;0.50;0.50;;;;;;;21.47;35.49;98858.58;103908;1354;136983;-83
2021/11/20 12:43:45;;;;;;;0.40;0.40;;;;;;;21.53;35.11;98856.78;103794;1354;138829;-83
2021/11/20 12:46:20;;;;;;;0.50;0.50;;;;;;;21.63;35.14;98852.92;103910;1354;137873;-84
2021/11/20 12:48:59;;;;;;;0.40;0.40;;;;;;;21.71;34.82;98848.96;103960;1355;22322;-84
2021/11/20 12:51:50;;;;;;;0.40;0.40;;;;;;;21.67;33.96;98846.86;103892;1354;137697;-85
2021/11/20 12:54:24;;;;;;;0.50;0.50;;;;;;;21.52;33.82;98843.77;103923;1354;22450;-84
2021/11/20 12:57:10;;;;;;;0.40;0.40;;;;;;;21.50;34.81;98841.71;103764;1354;138261;-84
2021/11/20 12:59:41;;;;;;;0.50;0.50;;;;;;;21.71;34.35;98840.10;103148;1357;137717;-85
2021/11/20 13:02:27;;;;;;;0.50;0.50;;;;;;;21.91;34.54;98838.32;103588;1354;138559;-85
2021/11/20 13:04:55;;;;;;;0.50;0.50;;;;;;;22.30;33.73;98835.10;103754;1354;138171;-85
2021/11/20 13:07:24;;;;;;;0.50;0.50;;;;;;;22.52;33.63;98831.64;103639;1354;138339;-84
2021/11/20 13:09:58;;;;;;;0.40;0.40;;;;;;;22.74;33.17;98839.21;103885;1354;137764;-84
2021/11/20 13:12:42;;;;;;;0.50;0.50;;;;;;;23.02;32.54;98839.39;103863;1356;22442;-85
2021/11/20 13:15:28;;;;;;;0.60;0.60;;;;;;;23.06;32.66;98834.79;102941;1357;137641;-83
2021/11/20 13:17:56;;;;;;;0.50;0.50;;;;;;;23.35;32.79;98830.13;103688;1355;138614;-84
2021/11/20 13:20:42;;;;;;;0.50;0.50;;;;;;;23.57;31.63;98824.36;103733;1355;138287;-84
2021/11/20 13:23:21;;;;;;;0.40;0.40;;;;;;;23.67;31.33;98815.77;103668;1356;138082;-83
2021/11/20 13:26:02;;;;;;;0.50;0.50;;;;;;;23.85;31.18;98817.75;103656;1352;139539;-84
2021/11/20 13:28:30;;;;;;;0.50;0.50;;;;;;;23.88;30.85;98817.37;103850;1356;137998;-84
2021/11/20 13:30:55;;;;;;;0.60;0.60;;;;;;;24.06;30.71;98825.77;103676;1357;137884;-84